AXM5206 WMKK-WBGG
Flight info
| Callsign | AXM5206 |
|---|---|
| Flight time | 1h 49m |
| Altitude | 33000 |
| Route | KIMAT1C KIMAT Y344 VPK M761 ESBAL ESBAL1G |
| Aircraft | A320/M-SDE3FGHIRWY/LB1 |
Departure
| Time | 2026-04-18 03:30 |
|---|---|
| Airport | Kuala Lumpur International Airport (WMKK) |
Arrival
| Time | 2026-04-18 05:19 |
|---|---|
| Airport | Kuching International Airport (WBGG) |
| Time | Latitude | Longitude | Altitude | Speed | Heading |
|---|---|---|---|---|---|
| 2026-04-18 02:51 | 2.74039 | 101.68483 | 42 ft | 0 kts | 326° |
| 2026-04-18 03:22 | 2.74026 | 101.68491 | 40 ft | 3 kts | 325° |
| 2026-04-18 03:23 | 2.74010 | 101.68504 | 39 ft | 3 kts | 312° |
| 2026-04-18 03:23 | 2.74001 | 101.68518 | 41 ft | 3 kts | 259° |
| 2026-04-18 03:23 | 2.74005 | 101.68529 | 38 ft | 2 kts | 236° |
| 2026-04-18 03:23 | 2.74008 | 101.68533 | 38 ft | 0 kts | 236° |
| 2026-04-18 03:25 | 2.73990 | 101.68513 | 38 ft | 11 kts | 223° |
| 2026-04-18 03:26 | 2.73932 | 101.68463 | 40 ft | 11 kts | 221° |
| 2026-04-18 03:26 | 2.73877 | 101.68410 | 42 ft | 13 kts | 230° |
| 2026-04-18 03:26 | 2.73821 | 101.68329 | 41 ft | 15 kts | 236° |
| 2026-04-18 03:26 | 2.73762 | 101.68239 | 42 ft | 16 kts | 236° |
| 2026-04-18 03:27 | 2.73732 | 101.68148 | 40 ft | 14 kts | 307° |
| 2026-04-18 03:27 | 2.73805 | 101.68097 | 40 ft | 12 kts | 327° |
| 2026-04-18 03:27 | 2.73869 | 101.68054 | 40 ft | 10 kts | 325° |
| 2026-04-18 03:27 | 2.73923 | 101.68017 | 40 ft | 9 kts | 327° |
| 2026-04-18 03:28 | 2.73950 | 101.67975 | 40 ft | 7 kts | 272° |
| 2026-04-18 03:28 | 2.73922 | 101.67920 | 38 ft | 17 kts | 236° |
| 2026-04-18 03:28 | 2.73848 | 101.67812 | 38 ft | 20 kts | 230° |
| 2026-04-18 03:28 | 2.73740 | 101.67802 | 37 ft | 9 kts | 148° |
| 2026-04-18 03:29 | 2.73701 | 101.67828 | 37 ft | 13 kts | 147° |
| 2026-04-18 03:29 | 2.73502 | 101.67961 | 36 ft | 67 kts | 146° |
| 2026-04-18 03:29 | 2.72937 | 101.68342 | 39 ft | 126 kts | 146° |
| 2026-04-18 03:29 | 2.72075 | 101.68923 | 47 ft | 170 kts | 146° |
| 2026-04-18 03:30 | 2.71108 | 101.69581 | 664 ft | 169 kts | 146° |
| 2026-04-18 03:30 | 2.70110 | 101.70259 | 1239 ft | 176 kts | 146° |
| 2026-04-18 03:30 | 2.69056 | 101.70959 | 1692 ft | 192 kts | 150° |
| 2026-04-18 03:30 | 2.67706 | 101.71257 | 1940 ft | 215 kts | 191° |
| 2026-04-18 03:31 | 2.66379 | 101.70545 | 2594 ft | 219 kts | 217° |
| 2026-04-18 03:31 | 2.65153 | 101.69586 | 3240 ft | 228 kts | 218° |
| 2026-04-18 03:31 | 2.63901 | 101.68595 | 4032 ft | 229 kts | 218° |
| 2026-04-18 03:31 | 2.62631 | 101.67597 | 4746 ft | 235 kts | 221° |
| 2026-04-18 03:32 | 2.61777 | 101.66222 | 5416 ft | 239 kts | 258° |
| 2026-04-18 03:32 | 2.61839 | 101.64573 | 6141 ft | 240 kts | 290° |
| 2026-04-18 03:32 | 2.62601 | 101.63094 | 6871 ft | 239 kts | 303° |
| 2026-04-18 03:32 | 2.63807 | 101.61949 | 7434 ft | 246 kts | 336° |
| 2026-04-18 03:33 | 2.65472 | 101.61613 | 7999 ft | 254 kts | 5° |
| 2026-04-18 03:33 | 2.67162 | 101.62214 | 8255 ft | 275 kts | 36° |
| 2026-04-18 03:33 | 2.68577 | 101.63567 | 8682 ft | 290 kts | 56° |
| 2026-04-18 03:33 | 2.69394 | 101.65399 | 9419 ft | 292 kts | 78° |
| 2026-04-18 03:34 | 2.69536 | 101.67437 | 10061 ft | 298 kts | 95° |
| 2026-04-18 03:34 | 2.69324 | 101.69560 | 10386 ft | 317 kts | 95° |
| 2026-04-18 03:34 | 2.69191 | 101.71832 | 10668 ft | 336 kts | 92° |
| 2026-04-18 03:34 | 2.69126 | 101.74195 | 11343 ft | 343 kts | 91° |
| 2026-04-18 03:35 | 2.69078 | 101.76601 | 12139 ft | 348 kts | 91° |
| 2026-04-18 03:35 | 2.69025 | 101.79034 | 12944 ft | 352 kts | 91° |
| 2026-04-18 03:35 | 2.68957 | 101.81493 | 13632 ft | 356 kts | 92° |
| 2026-04-18 03:35 | 2.68870 | 101.83984 | 14190 ft | 360 kts | 92° |
| 2026-04-18 03:36 | 2.68771 | 101.86493 | 14754 ft | 363 kts | 92° |
| 2026-04-18 03:36 | 2.68665 | 101.89021 | 15318 ft | 365 kts | 93° |
| 2026-04-18 03:36 | 2.68556 | 101.91568 | 15887 ft | 368 kts | 93° |
| 2026-04-18 03:36 | 2.68446 | 101.94140 | 16449 ft | 371 kts | 93° |
| 2026-04-18 03:37 | 2.68340 | 101.96727 | 17012 ft | 374 kts | 93° |
| 2026-04-18 03:37 | 2.68235 | 101.99341 | 17558 ft | 377 kts | 93° |
| 2026-04-18 03:37 | 2.68130 | 102.01971 | 18096 ft | 380 kts | 93° |
| 2026-04-18 03:37 | 2.68023 | 102.04625 | 18577 ft | 383 kts | 93° |
| 2026-04-18 03:38 | 2.67915 | 102.07292 | 19044 ft | 385 kts | 93° |
| 2026-04-18 03:38 | 2.68031 | 102.09980 | 19507 ft | 389 kts | 82° |
| 2026-04-18 03:38 | 2.68709 | 102.12603 | 19975 ft | 392 kts | 70° |
| 2026-04-18 03:38 | 2.69941 | 102.15045 | 20426 ft | 396 kts | 57° |
| 2026-04-18 03:39 | 2.71664 | 102.17200 | 20873 ft | 399 kts | 49° |
| 2026-04-18 03:39 | 2.73528 | 102.19265 | 21321 ft | 401 kts | 49° |
| 2026-04-18 03:39 | 2.75400 | 102.21349 | 21756 ft | 403 kts | 49° |
| 2026-04-18 03:39 | 2.77250 | 102.23417 | 22184 ft | 406 kts | 49° |
| 2026-04-18 03:40 | 2.79137 | 102.25525 | 22610 ft | 408 kts | 49° |
| 2026-04-18 03:40 | 2.81193 | 102.27489 | 23015 ft | 412 kts | 39° |
| 2026-04-18 03:40 | 2.83608 | 102.29039 | 23431 ft | 415 kts | 27° |
| 2026-04-18 03:40 | 2.86304 | 102.30097 | 23756 ft | 419 kts | 16° |
| 2026-04-18 03:41 | 2.89171 | 102.30659 | 24085 ft | 421 kts | 10° |
| 2026-04-18 03:41 | 2.92074 | 102.31122 | 24420 ft | 423 kts | 10° |
| 2026-04-18 03:41 | 2.94988 | 102.31594 | 24757 ft | 425 kts | 10° |
| 2026-04-18 03:41 | 2.97913 | 102.32070 | 25093 ft | 427 kts | 10° |
| 2026-04-18 03:42 | 3.00855 | 102.32550 | 25422 ft | 429 kts | 10° |
| 2026-04-18 03:42 | 3.03805 | 102.33032 | 25758 ft | 431 kts | 10° |
| 2026-04-18 03:42 | 3.06773 | 102.33518 | 26082 ft | 433 kts | 10° |
| 2026-04-18 03:42 | 3.09703 | 102.34199 | 26393 ft | 434 kts | 20° |
| 2026-04-18 03:43 | 3.12416 | 102.35518 | 26701 ft | 434 kts | 34° |
| 2026-04-18 03:43 | 3.14743 | 102.37436 | 27002 ft | 435 kts | 47° |
| 2026-04-18 03:43 | 3.16557 | 102.39857 | 27307 ft | 436 kts | 61° |
| 2026-04-18 03:43 | 3.17770 | 102.42632 | 27603 ft | 437 kts | 74° |
| 2026-04-18 03:44 | 3.18453 | 102.45604 | 27906 ft | 439 kts | 78° |
| 2026-04-18 03:44 | 3.19084 | 102.48604 | 28199 ft | 441 kts | 78° |
| 2026-04-18 03:44 | 3.19719 | 102.51614 | 28493 ft | 444 kts | 78° |
| 2026-04-18 03:44 | 3.20357 | 102.54645 | 28794 ft | 446 kts | 78° |
| 2026-04-18 03:45 | 3.20998 | 102.57681 | 29086 ft | 448 kts | 78° |
| 2026-04-18 03:45 | 3.21642 | 102.60735 | 29373 ft | 450 kts | 78° |
| 2026-04-18 03:45 | 3.22290 | 102.63806 | 29657 ft | 452 kts | 78° |
| 2026-04-18 03:45 | 3.22942 | 102.66887 | 29932 ft | 454 kts | 78° |
| 2026-04-18 03:46 | 3.23597 | 102.69980 | 30160 ft | 455 kts | 78° |
| 2026-04-18 03:46 | 3.24253 | 102.73085 | 30385 ft | 457 kts | 78° |
| 2026-04-18 03:46 | 3.24910 | 102.76204 | 30605 ft | 459 kts | 78° |
| 2026-04-18 03:46 | 3.25562 | 102.79293 | 30830 ft | 460 kts | 78° |
| 2026-04-18 03:47 | 3.26227 | 102.82429 | 31051 ft | 462 kts | 78° |
| 2026-04-18 03:47 | 3.26893 | 102.85582 | 31270 ft | 464 kts | 78° |
| 2026-04-18 03:47 | 3.27558 | 102.88733 | 31580 ft | 463 kts | 78° |
| 2026-04-18 03:47 | 3.28220 | 102.91878 | 31907 ft | 462 kts | 78° |
| 2026-04-18 03:48 | 3.28882 | 102.95024 | 32216 ft | 461 kts | 78° |
| 2026-04-18 03:48 | 3.29542 | 102.98162 | 32481 ft | 461 kts | 78° |
| 2026-04-18 03:48 | 3.30202 | 103.01299 | 32752 ft | 461 kts | 78° |
| 2026-04-18 03:48 | 3.30863 | 103.04438 | 32879 ft | 459 kts | 78° |
| 2026-04-18 03:49 | 3.32159 | 103.10581 | 32897 ft | 451 kts | 78° |
| 2026-04-18 03:49 | 3.33477 | 103.16827 | 32901 ft | 466 kts | 78° |
| 2026-04-18 03:50 | 3.34829 | 103.23262 | 32899 ft | 479 kts | 78° |
| 2026-04-18 03:50 | 3.36212 | 103.29851 | 32900 ft | 488 kts | 78° |
| 2026-04-18 03:51 | 3.37610 | 103.36460 | 32901 ft | 489 kts | 78° |
| 2026-04-18 03:51 | 3.38186 | 103.43207 | 32905 ft | 488 kts | 96° |
| 2026-04-18 03:52 | 3.36617 | 103.49804 | 32904 ft | 488 kts | 106° |
| 2026-04-18 03:52 | 3.34761 | 103.56338 | 32907 ft | 488 kts | 106° |
| 2026-04-18 03:53 | 3.32915 | 103.62876 | 32910 ft | 488 kts | 106° |
| 2026-04-18 03:53 | 3.31068 | 103.69413 | 32914 ft | 488 kts | 106° |
| 2026-04-18 03:54 | 3.29219 | 103.75951 | 32918 ft | 488 kts | 106° |
| 2026-04-18 03:54 | 3.27377 | 103.82453 | 32923 ft | 488 kts | 106° |
| 2026-04-18 03:55 | 3.25523 | 103.88987 | 34427 ft | 488 kts | 106° |
| 2026-04-18 03:55 | 3.24597 | 103.92253 | 32987 ft | 488 kts | 106° |
| 2026-04-18 03:55 | 3.23671 | 103.95519 | 32919 ft | 488 kts | 106° |
| 2026-04-18 03:56 | 3.22133 | 104.00954 | 32930 ft | 488 kts | 106° |
| 2026-04-18 03:56 | 3.20285 | 104.07486 | 32931 ft | 488 kts | 106° |
| 2026-04-18 03:57 | 3.17515 | 104.17284 | 32931 ft | 488 kts | 106° |
| 2026-04-18 03:58 | 3.15706 | 104.23830 | 32933 ft | 488 kts | 105° |
| 2026-04-18 03:58 | 3.13939 | 104.30381 | 32932 ft | 488 kts | 105° |
| 2026-04-18 03:59 | 3.12171 | 104.36935 | 32935 ft | 488 kts | 105° |
| 2026-04-18 03:59 | 3.10375 | 104.43482 | 32935 ft | 488 kts | 105° |
| 2026-04-18 04:00 | 3.08562 | 104.50034 | 32944 ft | 491 kts | 105° |
| 2026-04-18 04:00 | 3.06744 | 104.56617 | 32958 ft | 490 kts | 105° |
| 2026-04-18 04:01 | 3.04934 | 104.63184 | 32955 ft | 489 kts | 105° |
| 2026-04-18 04:01 | 3.03127 | 104.69740 | 32952 ft | 488 kts | 105° |
| 2026-04-18 04:02 | 3.01327 | 104.76284 | 32939 ft | 488 kts | 105° |
| 2026-04-18 04:02 | 2.99530 | 104.82817 | 32930 ft | 487 kts | 105° |
| 2026-04-18 04:03 | 2.97728 | 104.89344 | 32927 ft | 487 kts | 105° |
| 2026-04-18 04:03 | 2.95923 | 104.95866 | 32931 ft | 486 kts | 106° |
| 2026-04-18 04:04 | 2.94118 | 105.02390 | 32924 ft | 486 kts | 105° |
| 2026-04-18 04:04 | 2.92328 | 105.08866 | 32929 ft | 486 kts | 105° |
| 2026-04-18 04:05 | 2.90524 | 105.15388 | 32931 ft | 486 kts | 105° |
| 2026-04-18 04:05 | 2.88721 | 105.21907 | 32933 ft | 486 kts | 105° |
| 2026-04-18 04:06 | 2.86918 | 105.28427 | 32930 ft | 486 kts | 105° |
| 2026-04-18 04:06 | 2.85121 | 105.34946 | 32937 ft | 486 kts | 105° |
| 2026-04-18 04:07 | 2.83323 | 105.41464 | 32935 ft | 486 kts | 105° |
| 2026-04-18 04:07 | 2.81528 | 105.47977 | 32930 ft | 486 kts | 105° |
| 2026-04-18 04:08 | 2.79730 | 105.54486 | 32929 ft | 486 kts | 105° |
| 2026-04-18 04:08 | 2.77932 | 105.61005 | 32927 ft | 486 kts | 105° |
| 2026-04-18 04:09 | 2.76142 | 105.67512 | 32925 ft | 486 kts | 105° |
| 2026-04-18 04:09 | 2.74339 | 105.74026 | 32925 ft | 486 kts | 106° |
| 2026-04-18 04:10 | 2.72527 | 105.80540 | 32926 ft | 486 kts | 106° |
| 2026-04-18 04:10 | 2.70737 | 105.87014 | 32921 ft | 486 kts | 105° |
| 2026-04-18 04:11 | 2.68937 | 105.93538 | 32923 ft | 486 kts | 106° |
| 2026-04-18 04:11 | 2.67137 | 106.00061 | 32922 ft | 487 kts | 105° |
| 2026-04-18 04:12 | 2.65330 | 106.06589 | 32923 ft | 487 kts | 105° |
| 2026-04-18 04:12 | 2.63528 | 106.13117 | 32924 ft | 487 kts | 105° |
| 2026-04-18 04:13 | 2.61717 | 106.19651 | 32922 ft | 487 kts | 106° |
| 2026-04-18 04:13 | 2.59906 | 106.26178 | 32921 ft | 487 kts | 105° |
| 2026-04-18 04:14 | 2.58099 | 106.32707 | 32920 ft | 487 kts | 105° |
| 2026-04-18 04:14 | 2.56290 | 106.39237 | 32915 ft | 487 kts | 105° |
| 2026-04-18 04:15 | 2.54491 | 106.45762 | 32908 ft | 487 kts | 105° |
| 2026-04-18 04:15 | 2.52708 | 106.52295 | 32907 ft | 487 kts | 105° |
| 2026-04-18 04:16 | 2.50920 | 106.58827 | 32908 ft | 487 kts | 105° |
| 2026-04-18 04:16 | 2.49116 | 106.65362 | 32910 ft | 488 kts | 105° |
| 2026-04-18 04:17 | 2.47310 | 106.71902 | 32907 ft | 488 kts | 105° |
| 2026-04-18 04:17 | 2.45516 | 106.78448 | 32912 ft | 488 kts | 105° |
| 2026-04-18 04:18 | 2.43728 | 106.84951 | 32912 ft | 488 kts | 105° |
| 2026-04-18 04:18 | 2.41919 | 106.91487 | 32914 ft | 488 kts | 105° |
| 2026-04-18 04:19 | 2.40115 | 106.98034 | 32916 ft | 488 kts | 105° |
| 2026-04-18 04:19 | 2.38315 | 107.04577 | 32915 ft | 488 kts | 105° |
| 2026-04-18 04:20 | 2.36507 | 107.11121 | 32911 ft | 488 kts | 105° |
| 2026-04-18 04:20 | 2.34696 | 107.17662 | 32909 ft | 488 kts | 105° |
| 2026-04-18 04:21 | 2.32877 | 107.24206 | 32909 ft | 488 kts | 105° |
| 2026-04-18 04:21 | 2.31058 | 107.30750 | 32907 ft | 488 kts | 105° |
| 2026-04-18 04:22 | 2.29237 | 107.37296 | 32904 ft | 489 kts | 105° |
| 2026-04-18 04:22 | 2.27435 | 107.43796 | 32904 ft | 489 kts | 105° |
| 2026-04-18 04:23 | 2.25615 | 107.50347 | 32905 ft | 489 kts | 105° |
| 2026-04-18 04:23 | 2.23796 | 107.56891 | 32909 ft | 489 kts | 105° |
| 2026-04-18 04:24 | 2.21978 | 107.63447 | 32905 ft | 489 kts | 105° |
| 2026-04-18 04:24 | 2.20156 | 107.69994 | 32907 ft | 489 kts | 105° |
| 2026-04-18 04:25 | 2.18335 | 107.76548 | 32906 ft | 489 kts | 105° |
| 2026-04-18 04:25 | 2.16513 | 107.83100 | 32905 ft | 489 kts | 105° |
| 2026-04-18 04:26 | 2.13745 | 107.89243 | 32900 ft | 486 kts | 129° |
| 2026-04-18 04:26 | 2.11400 | 107.91587 | 32912 ft | 468 kts | 143° |
| 2026-04-18 04:26 | 2.08681 | 107.93231 | 32912 ft | 449 kts | 156° |
| 2026-04-18 04:26 | 2.05772 | 107.94173 | 32917 ft | 432 kts | 169° |
| 2026-04-18 04:27 | 2.02843 | 107.94467 | 32912 ft | 416 kts | 181° |
| 2026-04-18 04:27 | 2.00028 | 107.94160 | 32913 ft | 399 kts | 193° |
| 2026-04-18 04:27 | 1.97433 | 107.93316 | 32914 ft | 388 kts | 205° |
| 2026-04-18 04:27 | 1.95103 | 107.92000 | 32914 ft | 384 kts | 216° |
| 2026-04-18 04:28 | 1.93087 | 107.90265 | 32914 ft | 383 kts | 227° |
| 2026-04-18 04:28 | 1.91458 | 107.88209 | 32914 ft | 382 kts | 238° |
| 2026-04-18 04:28 | 1.90238 | 107.85854 | 32915 ft | 382 kts | 249° |
| 2026-04-18 04:28 | 1.89498 | 107.83307 | 32913 ft | 382 kts | 260° |
| 2026-04-18 04:29 | 1.89266 | 107.80666 | 32914 ft | 382 kts | 271° |
| 2026-04-18 04:29 | 1.90083 | 107.75423 | 32914 ft | 383 kts | 289° |
| 2026-04-18 04:29 | 1.91225 | 107.73030 | 32908 ft | 382 kts | 304° |
| 2026-04-18 04:30 | 1.92873 | 107.70953 | 32901 ft | 382 kts | 314° |
| 2026-04-18 04:30 | 1.97083 | 107.67765 | 32892 ft | 381 kts | 334° |
| 2026-04-18 04:30 | 1.99544 | 107.66792 | 32891 ft | 381 kts | 345° |
| 2026-04-18 04:31 | 2.02147 | 107.66333 | 32892 ft | 381 kts | 357° |
| 2026-04-18 04:31 | 2.04788 | 107.66394 | 32891 ft | 380 kts | 8° |
| 2026-04-18 04:31 | 2.07369 | 107.66959 | 32890 ft | 380 kts | 19° |
| 2026-04-18 04:31 | 2.09796 | 107.68005 | 32890 ft | 380 kts | 30° |
| 2026-04-18 04:32 | 2.11971 | 107.69492 | 32887 ft | 380 kts | 41° |
| 2026-04-18 04:32 | 2.13820 | 107.71372 | 32886 ft | 380 kts | 52° |
| 2026-04-18 04:32 | 2.15270 | 107.73574 | 32886 ft | 379 kts | 63° |
| 2026-04-18 04:32 | 2.16275 | 107.76009 | 32886 ft | 379 kts | 74° |
| 2026-04-18 04:33 | 2.16798 | 107.78584 | 32883 ft | 379 kts | 85° |
| 2026-04-18 04:33 | 2.16824 | 107.81180 | 32882 ft | 379 kts | 96° |
| 2026-04-18 04:33 | 2.16428 | 107.83783 | 32882 ft | 379 kts | 102° |
| 2026-04-18 04:34 | 2.15087 | 107.88969 | 32914 ft | 395 kts | 107° |
| 2026-04-18 04:34 | 2.13436 | 107.94356 | 32912 ft | 415 kts | 107° |
| 2026-04-18 04:35 | 2.11762 | 108.00015 | 32910 ft | 433 kts | 106° |
| 2026-04-18 04:35 | 2.10134 | 108.05854 | 32912 ft | 438 kts | 105° |
| 2026-04-18 04:36 | 2.08525 | 108.11730 | 32912 ft | 438 kts | 105° |
| 2026-04-18 04:36 | 2.06891 | 108.17602 | 32914 ft | 438 kts | 106° |
| 2026-04-18 04:37 | 2.05246 | 108.23468 | 32905 ft | 438 kts | 106° |
| 2026-04-18 04:37 | 2.03604 | 108.29334 | 32903 ft | 438 kts | 106° |
| 2026-04-18 04:38 | 2.01963 | 108.35198 | 32901 ft | 438 kts | 106° |
| 2026-04-18 04:38 | 2.00336 | 108.41022 | 32899 ft | 438 kts | 105° |
| 2026-04-18 04:39 | 1.98704 | 108.46890 | 32900 ft | 438 kts | 106° |
| 2026-04-18 04:39 | 1.97069 | 108.52764 | 32897 ft | 438 kts | 105° |
| 2026-04-18 04:39 | 1.96266 | 108.55692 | 32711 ft | 434 kts | 105° |
| 2026-04-18 04:40 | 1.95480 | 108.58585 | 32460 ft | 428 kts | 105° |
| 2026-04-18 04:40 | 1.94704 | 108.61451 | 31976 ft | 425 kts | 105° |
| 2026-04-18 04:40 | 1.93935 | 108.64295 | 31460 ft | 423 kts | 105° |
| 2026-04-18 04:40 | 1.93169 | 108.67127 | 30958 ft | 421 kts | 105° |
| 2026-04-18 04:41 | 1.92404 | 108.69944 | 30456 ft | 419 kts | 105° |
| 2026-04-18 04:41 | 1.91643 | 108.72751 | 29969 ft | 417 kts | 105° |
| 2026-04-18 04:41 | 1.90884 | 108.75545 | 29437 ft | 414 kts | 105° |
| 2026-04-18 04:41 | 1.90129 | 108.78307 | 28970 ft | 410 kts | 105° |
| 2026-04-18 04:42 | 1.89382 | 108.81040 | 28506 ft | 406 kts | 105° |
| 2026-04-18 04:42 | 1.88646 | 108.83747 | 28057 ft | 401 kts | 105° |
| 2026-04-18 04:42 | 1.87921 | 108.86425 | 27616 ft | 397 kts | 105° |
| 2026-04-18 04:42 | 1.87200 | 108.89078 | 27162 ft | 394 kts | 105° |
| 2026-04-18 04:43 | 1.86491 | 108.91673 | 26727 ft | 391 kts | 106° |
| 2026-04-18 04:43 | 1.85775 | 108.94281 | 26277 ft | 388 kts | 106° |
| 2026-04-18 04:43 | 1.85064 | 108.96873 | 25827 ft | 385 kts | 106° |
| 2026-04-18 04:43 | 1.84361 | 108.99451 | 25365 ft | 384 kts | 106° |
| 2026-04-18 04:44 | 1.83665 | 109.02020 | 24898 ft | 382 kts | 106° |
| 2026-04-18 04:44 | 1.82973 | 109.04577 | 24420 ft | 381 kts | 106° |
| 2026-04-18 04:44 | 1.82279 | 109.07137 | 23939 ft | 381 kts | 106° |
| 2026-04-18 04:44 | 1.81587 | 109.09685 | 23454 ft | 380 kts | 106° |
| 2026-04-18 04:45 | 1.80890 | 109.12238 | 22906 ft | 380 kts | 106° |
| 2026-04-18 04:45 | 1.80195 | 109.14771 | 22428 ft | 377 kts | 106° |
| 2026-04-18 04:45 | 1.79505 | 109.17296 | 21952 ft | 375 kts | 106° |
| 2026-04-18 04:45 | 1.78820 | 109.19804 | 21478 ft | 373 kts | 106° |
| 2026-04-18 04:46 | 1.78141 | 109.22305 | 21015 ft | 372 kts | 106° |
| 2026-04-18 04:46 | 1.77467 | 109.24792 | 20550 ft | 371 kts | 106° |
| 2026-04-18 04:46 | 1.76793 | 109.27275 | 20091 ft | 370 kts | 106° |
| 2026-04-18 04:46 | 1.76120 | 109.29753 | 19636 ft | 369 kts | 106° |
| 2026-04-18 04:47 | 1.75445 | 109.32221 | 19177 ft | 368 kts | 106° |
| 2026-04-18 04:47 | 1.74767 | 109.34689 | 18722 ft | 368 kts | 106° |
| 2026-04-18 04:47 | 1.74089 | 109.37159 | 18271 ft | 368 kts | 106° |
| 2026-04-18 04:47 | 1.73413 | 109.39628 | 17776 ft | 368 kts | 106° |
| 2026-04-18 04:48 | 1.72744 | 109.42079 | 17344 ft | 365 kts | 106° |
| 2026-04-18 04:48 | 1.72078 | 109.44524 | 16881 ft | 364 kts | 106° |
| 2026-04-18 04:48 | 1.71418 | 109.46952 | 16448 ft | 362 kts | 106° |
| 2026-04-18 04:48 | 1.70768 | 109.49342 | 16024 ft | 360 kts | 106° |
| 2026-04-18 04:49 | 1.70105 | 109.51779 | 15585 ft | 356 kts | 106° |
| 2026-04-18 04:49 | 1.69476 | 109.54097 | 15182 ft | 343 kts | 106° |
| 2026-04-18 04:49 | 1.68770 | 109.56325 | 14788 ft | 331 kts | 114° |
| 2026-04-18 04:49 | 1.67854 | 109.58396 | 14408 ft | 321 kts | 115° |
| 2026-04-18 04:50 | 1.66953 | 109.60431 | 14033 ft | 321 kts | 115° |
| 2026-04-18 04:50 | 1.66042 | 109.62476 | 13649 ft | 323 kts | 115° |
| 2026-04-18 04:50 | 1.65126 | 109.64530 | 13225 ft | 324 kts | 115° |
| 2026-04-18 04:50 | 1.64209 | 109.66589 | 12842 ft | 324 kts | 115° |
| 2026-04-18 04:51 | 1.63293 | 109.68646 | 12451 ft | 324 kts | 115° |
| 2026-04-18 04:51 | 1.62687 | 109.70012 | 12190 ft | 324 kts | 114° |
| 2026-04-18 04:51 | 1.61777 | 109.72070 | 11793 ft | 324 kts | 114° |
| 2026-04-18 04:51 | 1.60865 | 109.74130 | 11390 ft | 324 kts | 114° |
| 2026-04-18 04:52 | 1.59954 | 109.76186 | 10995 ft | 324 kts | 114° |
| 2026-04-18 04:52 | 1.59047 | 109.78232 | 10671 ft | 321 kts | 114° |
| 2026-04-18 04:52 | 1.58149 | 109.80251 | 10485 ft | 312 kts | 114° |
| 2026-04-18 04:52 | 1.57278 | 109.82212 | 9959 ft | 308 kts | 114° |
| 2026-04-18 04:53 | 1.56418 | 109.84153 | 9445 ft | 301 kts | 114° |
| 2026-04-18 04:53 | 1.55583 | 109.86033 | 9034 ft | 291 kts | 114° |
| 2026-04-18 04:53 | 1.54778 | 109.87848 | 8650 ft | 280 kts | 114° |
| 2026-04-18 04:53 | 1.53999 | 109.89608 | 8259 ft | 275 kts | 114° |
| 2026-04-18 04:54 | 1.53224 | 109.91356 | 7876 ft | 276 kts | 114° |
| 2026-04-18 04:54 | 1.52444 | 109.93112 | 7477 ft | 277 kts | 114° |
| 2026-04-18 04:54 | 1.51663 | 109.94876 | 7075 ft | 278 kts | 114° |
| 2026-04-18 04:54 | 1.50876 | 109.96648 | 6677 ft | 280 kts | 114° |
| 2026-04-18 04:55 | 1.50083 | 109.98431 | 6252 ft | 281 kts | 114° |
| 2026-04-18 04:55 | 1.49286 | 110.00221 | 5812 ft | 282 kts | 114° |
| 2026-04-18 04:55 | 1.48491 | 110.02011 | 5400 ft | 281 kts | 114° |
| 2026-04-18 04:56 | 1.46913 | 110.05566 | 4502 ft | 283 kts | 114° |
| 2026-04-18 04:56 | 1.46122 | 110.07369 | 4045 ft | 284 kts | 111° |
| 2026-04-18 04:56 | 1.45678 | 110.09277 | 3644 ft | 281 kts | 92° |
| 2026-04-18 04:56 | 1.45668 | 110.11180 | 3503 ft | 268 kts | 89° |
| 2026-04-18 04:57 | 1.45662 | 110.13010 | 3332 ft | 260 kts | 89° |
| 2026-04-18 04:57 | 1.45650 | 110.14794 | 3148 ft | 253 kts | 89° |
| 2026-04-18 04:57 | 1.45637 | 110.16525 | 2979 ft | 247 kts | 89° |
| 2026-04-18 04:57 | 1.45628 | 110.18219 | 2808 ft | 240 kts | 89° |
| 2026-04-18 04:58 | 1.45620 | 110.19855 | 2653 ft | 232 kts | 89° |
| 2026-04-18 04:58 | 1.45612 | 110.21441 | 2411 ft | 224 kts | 88° |
| 2026-04-18 04:58 | 1.45602 | 110.22965 | 2087 ft | 215 kts | 88° |
| 2026-04-18 04:58 | 1.45593 | 110.24425 | 1797 ft | 205 kts | 88° |
| 2026-04-18 04:59 | 1.45592 | 110.25820 | 1541 ft | 195 kts | 86° |
| 2026-04-18 04:59 | 1.45726 | 110.27109 | 1340 ft | 180 kts | 78° |
| 2026-04-18 04:59 | 1.45996 | 110.28279 | 1190 ft | 163 kts | 72° |
| 2026-04-18 04:59 | 1.46345 | 110.29291 | 1096 ft | 147 kts | 65° |
| 2026-04-18 05:00 | 1.46714 | 110.30218 | 928 ft | 141 kts | 65° |
| 2026-04-18 05:00 | 1.47069 | 110.31111 | 705 ft | 137 kts | 66° |
| 2026-04-18 05:00 | 1.47415 | 110.31987 | 539 ft | 135 kts | 66° |
| 2026-04-18 05:00 | 1.47764 | 110.32865 | 338 ft | 136 kts | 66° |
| 2026-04-18 05:01 | 1.48114 | 110.33738 | 131 ft | 135 kts | 67° |
| 2026-04-18 05:01 | 1.48447 | 110.34549 | 113 ft | 129 kts | 66° |
| 2026-04-18 05:01 | 1.48830 | 110.35465 | 646 ft | 158 kts | 65° |
| 2026-04-18 05:01 | 1.49296 | 110.36592 | 1245 ft | 193 kts | 67° |
| 2026-04-18 05:02 | 1.49804 | 110.37912 | 1863 ft | 210 kts | 67° |
| 2026-04-18 05:02 | 1.50344 | 110.39287 | 2665 ft | 215 kts | 67° |
| 2026-04-18 05:02 | 1.50896 | 110.40696 | 3429 ft | 220 kts | 68° |
| 2026-04-18 05:02 | 1.51371 | 110.42169 | 4192 ft | 226 kts | 77° |
| 2026-04-18 05:03 | 1.51536 | 110.43726 | 4954 ft | 231 kts | 89° |
| 2026-04-18 05:03 | 1.51362 | 110.45338 | 5726 ft | 236 kts | 102° |
| 2026-04-18 05:03 | 1.50842 | 110.46918 | 6306 ft | 244 kts | 114° |
| 2026-04-18 05:03 | 1.49974 | 110.48370 | 6458 ft | 244 kts | 128° |
| 2026-04-18 05:04 | 1.48797 | 110.49579 | 6492 ft | 243 kts | 142° |
| 2026-04-18 05:04 | 1.47382 | 110.50490 | 6496 ft | 242 kts | 155° |
| 2026-04-18 05:04 | 1.45808 | 110.51070 | 6497 ft | 241 kts | 168° |
| 2026-04-18 05:04 | 1.44150 | 110.51289 | 6499 ft | 240 kts | 181° |
| 2026-04-18 05:05 | 1.42495 | 110.51137 | 6495 ft | 239 kts | 194° |
| 2026-04-18 05:05 | 1.40924 | 110.50626 | 6498 ft | 237 kts | 207° |
| 2026-04-18 05:05 | 1.39502 | 110.49804 | 6502 ft | 236 kts | 215° |
| 2026-04-18 05:05 | 1.38120 | 110.48914 | 6539 ft | 235 kts | 214° |
| 2026-04-18 05:06 | 1.36756 | 110.48047 | 6773 ft | 237 kts | 214° |
| 2026-04-18 05:06 | 1.35342 | 110.47151 | 6939 ft | 238 kts | 214° |
| 2026-04-18 05:06 | 1.33936 | 110.46260 | 6992 ft | 249 kts | 214° |
| 2026-04-18 05:06 | 1.32395 | 110.45280 | 6996 ft | 277 kts | 214° |
| 2026-04-18 05:07 | 1.30752 | 110.44235 | 6996 ft | 282 kts | 214° |
| 2026-04-18 05:07 | 1.29097 | 110.43183 | 6989 ft | 282 kts | 214° |
| 2026-04-18 05:07 | 1.27438 | 110.42128 | 6991 ft | 283 kts | 214° |
| 2026-04-18 05:07 | 1.25779 | 110.41071 | 6992 ft | 283 kts | 214° |
| 2026-04-18 05:08 | 1.24094 | 110.39999 | 6989 ft | 283 kts | 214° |
| 2026-04-18 05:08 | 1.22458 | 110.38961 | 6988 ft | 282 kts | 214° |
| 2026-04-18 05:08 | 1.20800 | 110.37910 | 6981 ft | 282 kts | 214° |
| 2026-04-18 05:08 | 1.19140 | 110.36859 | 6981 ft | 283 kts | 214° |
| 2026-04-18 05:09 | 1.17482 | 110.35807 | 6981 ft | 282 kts | 214° |
| 2026-04-18 05:09 | 1.15824 | 110.34758 | 6979 ft | 282 kts | 214° |
| 2026-04-18 05:09 | 1.14168 | 110.33705 | 6974 ft | 282 kts | 216° |
| 2026-04-18 05:09 | 1.12788 | 110.32345 | 6971 ft | 279 kts | 238° |
| 2026-04-18 05:10 | 1.12057 | 110.30572 | 6975 ft | 276 kts | 261° |
| 2026-04-18 05:10 | 1.12084 | 110.28671 | 6973 ft | 275 kts | 283° |
| 2026-04-18 05:10 | 1.12834 | 110.26917 | 6976 ft | 276 kts | 300° |
| 2026-04-18 05:10 | 1.13780 | 110.25252 | 6976 ft | 276 kts | 300° |
| 2026-04-18 05:11 | 1.14726 | 110.23579 | 6979 ft | 277 kts | 299° |
| 2026-04-18 05:11 | 1.15648 | 110.21939 | 6977 ft | 263 kts | 299° |
| 2026-04-18 05:11 | 1.16514 | 110.20399 | 6976 ft | 245 kts | 299° |
| 2026-04-18 05:11 | 1.17324 | 110.18958 | 6974 ft | 232 kts | 299° |
| 2026-04-18 05:12 | 1.18107 | 110.17579 | 6978 ft | 230 kts | 302° |
| 2026-04-18 05:12 | 1.19190 | 110.16414 | 6978 ft | 230 kts | 324° |
| 2026-04-18 05:12 | 1.20634 | 110.15733 | 6980 ft | 232 kts | 346° |
| 2026-04-18 05:12 | 1.22238 | 110.15636 | 6981 ft | 233 kts | 7° |
| 2026-04-18 05:13 | 1.23777 | 110.16139 | 6985 ft | 236 kts | 26° |
| 2026-04-18 05:13 | 1.25233 | 110.16910 | 6914 ft | 239 kts | 26° |
| 2026-04-18 05:13 | 1.26753 | 110.17710 | 6315 ft | 255 kts | 26° |
| 2026-04-18 05:13 | 1.28361 | 110.18555 | 5636 ft | 266 kts | 26° |
| 2026-04-18 05:14 | 1.29990 | 110.19406 | 4949 ft | 259 kts | 26° |
| 2026-04-18 05:14 | 1.31538 | 110.20212 | 4461 ft | 242 kts | 26° |
| 2026-04-18 05:14 | 1.32983 | 110.20965 | 4112 ft | 229 kts | 27° |
| 2026-04-18 05:14 | 1.34368 | 110.21686 | 3797 ft | 220 kts | 27° |
| 2026-04-18 05:15 | 1.35695 | 110.22378 | 3501 ft | 211 kts | 27° |
| 2026-04-18 05:15 | 1.36969 | 110.23044 | 3219 ft | 201 kts | 27° |
| 2026-04-18 05:15 | 1.38187 | 110.23678 | 2984 ft | 192 kts | 27° |
| 2026-04-18 05:15 | 1.39333 | 110.24274 | 2698 ft | 180 kts | 27° |
| 2026-04-18 05:16 | 1.40419 | 110.24837 | 2450 ft | 171 kts | 27° |
| 2026-04-18 05:16 | 1.41436 | 110.25367 | 2261 ft | 156 kts | 27° |
| 2026-04-18 05:16 | 1.42354 | 110.25845 | 2038 ft | 143 kts | 26° |
| 2026-04-18 05:16 | 1.43220 | 110.26293 | 1828 ft | 137 kts | 26° |
| 2026-04-18 05:17 | 1.44056 | 110.26727 | 1659 ft | 137 kts | 27° |
| 2026-04-18 05:17 | 1.44860 | 110.27233 | 1476 ft | 137 kts | 37° |
| 2026-04-18 05:17 | 1.45545 | 110.27893 | 1290 ft | 137 kts | 48° |
| 2026-04-18 05:17 | 1.46083 | 110.28680 | 1096 ft | 138 kts | 59° |
| 2026-04-18 05:18 | 1.46462 | 110.29560 | 938 ft | 137 kts | 65° |
| 2026-04-18 05:18 | 1.46809 | 110.30440 | 780 ft | 135 kts | 66° |
| 2026-04-18 05:18 | 1.47152 | 110.31305 | 602 ft | 132 kts | 67° |
| 2026-04-18 05:18 | 1.47492 | 110.32160 | 403 ft | 132 kts | 68° |
| 2026-04-18 05:19 | 1.47831 | 110.33016 | 295 ft | 134 kts | 68° |
| 2026-04-18 05:19 | 1.48173 | 110.33873 | 111 ft | 132 kts | 67° |
| 2026-04-18 05:19 | 1.48465 | 110.34610 | 84 ft | 90 kts | 69° |
| 2026-04-18 05:19 | 1.48630 | 110.35036 | 73 ft | 41 kts | 69° |
| 2026-04-18 05:20 | 1.48712 | 110.35238 | 71 ft | 17 kts | 65° |
| 2026-04-18 05:20 | 1.48810 | 110.35271 | 67 ft | 18 kts | 341° |
| 2026-04-18 05:20 | 1.48881 | 110.35213 | 67 ft | 11 kts | 272° |
| 2026-04-18 05:20 | 1.48859 | 110.35148 | 60 ft | 9 kts | 250° |
| 2026-04-18 05:21 | 1.48831 | 110.35075 | 62 ft | 15 kts | 248° |
| 2026-04-18 05:21 | 1.48793 | 110.34982 | 71 ft | 13 kts | 248° |
| 2026-04-18 05:21 | 1.48764 | 110.34908 | 74 ft | 10 kts | 249° |
| 2026-04-18 05:21 | 1.48741 | 110.34847 | 67 ft | 8 kts | 249° |
| 2026-04-18 05:22 | 1.48723 | 110.34801 | 74 ft | 6 kts | 249° |
| 2026-04-18 05:22 | 1.48711 | 110.34770 | 70 ft | 4 kts | 247° |
| 2026-04-18 05:22 | 1.48703 | 110.34752 | 69 ft | 4 kts | 247° |
| 2026-04-18 05:22 | 1.48674 | 110.34674 | 72 ft | 18 kts | 248° |
| 2026-04-18 05:23 | 1.48690 | 110.34568 | 75 ft | 15 kts | 307° |
| 2026-04-18 05:23 | 1.48659 | 110.34444 | 73 ft | 18 kts | 247° |
| 2026-04-18 05:23 | 1.48620 | 110.34349 | 77 ft | 14 kts | 249° |
| 2026-04-18 05:23 | 1.48598 | 110.34290 | 74 ft | 12 kts | 249° |
| 2026-04-18 05:24 | 1.48603 | 110.34256 | 74 ft | 3 kts | 339° |
| 2026-04-18 05:24 | 1.48635 | 110.34246 | 75 ft | 2 kts | 339° |
| 2026-04-18 05:24 | 1.48649 | 110.34240 | 71 ft | 2 kts | 339° |
| 2026-04-18 05:24 | 1.48656 | 110.34238 | 73 ft | 0 kts | 338° |